Time;durP1;ratioP1;P1;durP2;ratioP2;P2;SDS_P1;SDS_P2;PMS_P1;PMS_P2;Temp;Humidity;BMP_temperature;BMP_pressure;BME280_temperature;BME280_humidity;BME280_pressure;Samples;Min_cycle;Max_cycle;Signal;HPM_P1;HPM_P2
2021/05/23 00:01:27;;;;;;;2.70;1.90;;;;;;;8.54;67.88;99752.47;5074429;28;20293;-72
2021/05/23 00:03:55;;;;;;;5.27;2.63;;;;;;;8.49;68.32;99755.50;5070127;28;20254;-71
2021/05/23 00:06:23;;;;;;;1.90;1.70;;;;;;;8.46;68.02;99758.41;5069710;28;20199;-72
2021/05/23 00:08:50;;;;;;;1.93;1.57;;;;;;;8.41;68.53;99757.91;5077270;28;20303;-72
2021/05/23 00:11:19;;;;;;;3.43;2.40;;;;;;;8.35;68.09;99758.38;5075539;28;20199;-71
2021/05/23 00:13:49;;;;;;;1.77;1.63;;;;;;;8.25;69.13;99760.81;5073262;28;20253;-72
2021/05/23 00:16:19;;;;;;;4.33;1.70;;;;;;;7.82;69.75;99700.78;5060960;28;20211;-72
2021/05/23 00:18:50;;;;;;;1.87;1.77;;;;;;;8.23;68.71;99761.91;5069972;28;20214;-72
2021/05/23 00:21:26;;;;;;;4.07;2.73;;;;;;;8.05;70.12;99756.97;5069960;28;20564;-73
2021/05/23 00:23:54;;;;;;;4.57;4.07;;;;;;;8.00;70.72;99753.78;5070006;28;20218;-72
2021/05/23 00:26:23;;;;;;;81.57;60.27;;;;;;;8.07;70.80;99754.16;5070009;28;20614;-71
2021/05/23 00:28:52;;;;;;;4.77;3.90;;;;;;;8.14;69.67;99755.41;5069537;28;20275;-71
2021/05/23 00:31:29;;;;;;;2.30;1.80;;;;;;;7.91;69.80;99710.81;5061297;28;20188;-72
2021/05/23 00:33:56;;;;;;;2.67;1.70;;;;;;;8.18;68.98;99756.91;5070463;28;20196;-72
2021/05/23 00:36:24;;;;;;;2.90;1.73;;;;;;;8.14;68.59;99747.41;5071381;28;20205;-72
2021/05/23 00:38:52;;;;;;;3.87;1.70;;;;;;;7.94;68.74;99721.25;5071431;28;20199;-72
2021/05/23 00:41:20;;;;;;;2.17;1.63;;;;;;;8.16;68.70;99758.84;5071274;28;20234;-72
2021/05/23 00:43:49;;;;;;;1.67;1.57;;;;;;;8.14;68.75;99749.22;5070590;28;20657;-71
2021/05/23 00:46:17;;;;;;;14.17;1.90;;;;;;;7.77;68.51;99693.97;5069151;28;20232;-72
2021/05/23 00:48:44;;;;;;;1.67;1.50;;;;;;;8.08;68.76;99747.84;5069884;28;20218;-71
2021/05/23 00:51:12;;;;;;;3.10;1.80;;;;;;;8.06;68.72;99747.13;5069861;28;20762;-71
2021/05/23 00:53:40;;;;;;;2.60;1.83;;;;;;;8.04;68.03;99749.06;5070620;28;20631;-71
2021/05/23 00:56:07;;;;;;;2.60;1.70;;;;;;;8.00;68.27;99743.09;5071051;28;20615;-71
2021/05/23 00:58:35;;;;;;;1.67;1.57;;;;;;;7.97;68.21;99742.47;5070790;28;20193;-72
2021/05/23 01:01:41;;;;;;;2.80;1.57;;;;;;;7.94;68.88;99739.97;5066711;28;20235;-71
2021/05/23 01:04:10;;;;;;;1.93;1.53;;;;;;;7.83;68.87;99743.44;5036535;28;20230;-71
2021/05/23 01:06:38;;;;;;;3.60;1.80;;;;;;;7.76;68.55;99745.72;5074079;28;20563;-72
2021/05/23 01:09:09;;;;;;;1.60;1.50;;;;;;;7.75;68.55;99749.34;5068657;28;20713;-72
2021/05/23 01:12:23;;;;;;;1.60;1.50;;;;;;;7.73;68.66;99751.28;5068872;28;20667;-72
2021/05/23 01:14:56;;;;;;;2.43;1.70;;;;;;;7.71;68.23;99752.34;5063014;28;20269;-71
2021/05/23 01:17:36;;;;;;;2.37;1.80;;;;;;;7.71;68.37;99757.72;5066523;28;20643;-72
2021/05/23 01:20:27;;;;;;;2.10;1.40;;;;;;;7.69;68.14;99756.97;5077377;28;20195;-71
2021/05/23 01:23:07;;;;;;;2.13;1.53;;;;;;;7.60;69.06;99761.13;5065326;28;20212;-72
2021/05/23 01:25:39;;;;;;;2.00;1.50;;;;;;;7.31;69.05;99712.44;5074046;28;20228;-66
2021/05/23 01:28:07;;;;;;;1.63;1.47;;;;;;;7.34;68.49;99720.22;5070587;28;20235;-66
2021/05/23 01:30:42;;;;;;;1.80;1.50;;;;;;;7.53;68.37;99759.84;5058222;28;20206;-65
2021/05/23 01:33:12;;;;;;;2.10;1.67;;;;;;;7.31;68.93;99732.94;5080039;28;20210;-65
2021/05/23 01:35:42;;;;;;;1999.90;890.40;;;;;;;7.47;68.48;99760.31;5069552;28;20274;-65
2021/05/23 01:38:13;;;;;;;184.43;75.90;;;;;;;7.42;68.43;99746.41;5070130;28;20207;-66
2021/05/23 01:40:43;;;;;;;6.50;4.40;;;;;;;7.40;68.41;99743.88;5082310;28;20229;-71
2021/05/23 01:43:12;;;;;;;5.97;3.77;;;;;;;7.45;69.13;99756.88;5076357;28;20347;-65
2021/05/23 01:45:40;;;;;;;2.73;2.53;;;;;;;7.45;69.13;99746.19;5067943;28;20289;-64
2021/05/23 01:48:10;;;;;;;3.37;2.23;;;;;;;7.50;69.07;99749.41;5068411;28;20224;-66
2021/05/23 01:50:38;;;;;;;2.53;2.13;;;;;;;7.52;69.24;99746.63;5069719;28;20654;-66
2021/05/23 01:53:06;;;;;;;14.23;3.83;;;;;;;7.50;69.07;99746.72;5069019;28;20195;-66
2021/05/23 01:55:35;;;;;;;3.83;1.93;;;;;;;7.59;68.94;99743.38;5102512;28;20552;-71
2021/05/23 01:58:04;;;;;;;2.77;1.73;;;;;;;7.58;69.12;99741.69;5068659;28;20207;-71
2021/05/23 02:00:35;;;;;;;2.10;1.67;;;;;;;7.62;68.79;99742.31;5069591;28;20211;-71
2021/05/23 02:03:05;;;;;;;2.27;1.87;;;;;;;7.64;68.72;99746.56;5067512;28;20295;-71
2021/05/23 02:05:36;;;;;;;2.50;1.70;;;;;;;7.63;68.90;99742.19;5066860;28;20198;-66
2021/05/23 02:08:04;;;;;;;2.00;1.50;;;;;;;7.65;68.70;99745.66;5070157;28;20711;-66
2021/05/23 02:10:32;;;;;;;2.60;1.90;;;;;;;7.35;68.38;99686.41;5079195;28;20190;-66
2021/05/23 02:13:00;;;;;;;3.03;1.70;;;;;;;7.72;68.08;99744.22;5070172;28;20654;-66
2021/05/23 02:15:29;;;;;;;3.47;2.00;;;;;;;7.74;67.84;99736.09;5058839;28;20217;-65
2021/05/23 02:17:58;;;;;;;3.00;2.50;;;;;;;7.83;68.08;99742.59;5069227;28;20202;-66
2021/05/23 02:20:29;;;;;;;3.00;1.97;;;;;;;7.86;68.09;99739.69;5068480;28;20250;-71
2021/05/23 02:22:58;;;;;;;1.70;1.60;;;;;;;7.78;67.89;99722.41;5069171;28;20208;-72
2021/05/23 02:25:27;;;;;;;1.93;1.63;;;;;;;7.93;67.50;99743.63;5069574;28;20196;-71
2021/05/23 02:27:57;;;;;;;1.70;1.60;;;;;;;7.62;68.67;99705.75;5068738;28;20201;-71
2021/05/23 02:30:28;;;;;;;2.57;1.77;;;;;;;7.87;68.98;99741.41;5069255;28;20196;-65
2021/05/23 02:32:57;;;;;;;1.77;1.57;;;;;;;7.83;68.49;99738.09;5068709;28;20661;-65
2021/05/23 02:35:27;;;;;;;1.50;1.40;;;;;;;7.77;69.37;99723.38;5068423;28;20194;-71
2021/05/23 02:37:57;;;;;;;1.87;1.60;;;;;;;7.89;68.98;99740.31;5077793;28;20194;-65
2021/05/23 02:40:28;;;;;;;1.13;1.13;;;;;;;7.78;68.35;99710.84;5069269;28;20199;-65
2021/05/23 02:42:56;;;;;;;1.70;1.60;;;;;;;8.00;69.87;99748.44;5065342;28;20745;-65
2021/05/23 02:45:25;;;;;;;2.23;1.73;;;;;;;8.11;73.05;99755.66;5069227;28;20223;-71
2021/05/23 02:47:54;;;;;;;1.60;1.50;;;;;;;8.40;71.13;99746.34;5061293;28;20224;-66
2021/05/23 02:50:25;;;;;;;1.50;1.40;;;;;;;8.71;71.73;99755.59;5069802;28;20235;-66
2021/05/23 02:52:53;;;;;;;7.57;1.60;;;;;;;9.14;72.11;99751.44;5074983;28;20216;-66
2021/05/23 02:55:21;;;;;;;2.03;1.50;;;;;;;9.36;71.02;99743.41;5076839;28;20217;-65
2021/05/23 02:57:49;;;;;;;1.73;1.33;;;;;;;9.44;69.76;99738.31;5068169;28;20228;-66
2021/05/23 03:00:19;;;;;;;1.57;1.47;;;;;;;9.50;68.93;99743.19;5075404;28;20209;-66
2021/05/23 03:02:48;;;;;;;1.93;1.57;;;;;;;9.45;69.16;99744.50;5073996;28;20549;-66
2021/05/23 03:05:18;;;;;;;1.50;1.40;;;;;;;9.41;69.39;99751.09;5068595;28;20251;-66
2021/05/23 03:07:48;;;;;;;1.73;1.60;;;;;;;9.39;68.58;99745.84;5059328;28;20201;-66
2021/05/23 03:10:18;;;;;;;1.53;1.43;;;;;;;9.46;69.10;99751.56;5076214;28;20212;-67
2021/05/23 03:12:47;;;;;;;1.53;1.43;;;;;;;9.52;68.58;99760.00;5072063;28;20240;-71
2021/05/23 03:15:16;;;;;;;1.40;1.30;;;;;;;9.32;68.75;99736.59;5074439;28;20585;-66
2021/05/23 03:17:45;;;;;;;3.47;1.70;;;;;;;9.51;69.40;99760.97;5072663;28;20208;-64
2021/05/23 03:20:15;;;;;;;4.93;1.60;;;;;;;9.51;68.68;99763.66;5069778;28;20195;-65
2021/05/23 03:22:44;;;;;;;2.00;1.73;;;;;;;9.45;69.82;99769.47;5068700;28;20219;-65
2021/05/23 03:25:15;;;;;;;1.57;1.47;;;;;;;9.39;70.04;99767.28;5068084;28;20210;-71
2021/05/23 03:27:43;;;;;;;2.40;1.60;;;;;;;9.37;70.07;99771.91;5072268;28;20294;-71
2021/05/23 03:30:14;;;;;;;1.50;1.40;;;;;;;9.26;69.65;99759.38;5072136;28;20608;-65
2021/05/23 03:32:42;;;;;;;345.57;208.17;;;;;;;9.34;69.50;99764.13;5069373;28;20223;-65
2021/05/23 03:35:11;;;;;;;10.20;6.80;;;;;;;9.36;70.50;99764.00;5077106;28;20270;-65
2021/05/23 03:37:39;;;;;;;2.47;2.27;;;;;;;9.37;70.93;99761.22;5070943;28;20209;-65
2021/05/23 03:40:10;;;;;;;3.13;2.07;;;;;;;9.49;70.53;99775.44;5070806;28;20203;-65
2021/05/23 03:42:38;;;;;;;2.73;2.53;;;;;;;9.53;71.26;99775.13;5070179;28;20209;-65
2021/05/23 03:45:08;;;;;;;3.13;2.30;;;;;;;9.64;69.92;99777.78;5076375;28;20841;-65
2021/05/23 03:47:36;;;;;;;5.43;2.10;;;;;;;9.77;68.87;99777.66;5070598;28;20266;-70
2021/05/23 03:50:07;;;;;;;12.60;6.10;;;;;;;9.92;68.05;99778.25;5070763;28;20206;-70
2021/05/23 03:52:35;;;;;;;5.93;4.07;;;;;;;10.08;67.55;99777.84;5069913;28;20216;-64
2021/05/23 03:55:05;;;;;;;3.00;2.07;;;;;;;10.17;68.15;99774.44;5074733;28;20200;-65
2021/05/23 03:57:33;;;;;;;2.07;1.80;;;;;;;10.27;68.38;99770.06;5073455;28;20197;-64
2021/05/23 04:00:03;;;;;;;2.87;1.80;;;;;;;10.27;69.97;99775.41;5069992;28;20190;-64
2021/05/23 04:02:39;;;;;;;2.27;1.87;;;;;;;10.24;69.40;99768.47;5070263;28;20220;-65
2021/05/23 04:05:08;;;;;;;2.23;2.00;;;;;;;10.29;69.46;99772.59;5078052;28;20291;-65
2021/05/23 04:07:35;;;;;;;1.70;1.60;;;;;;;10.31;68.97;99776.03;5081278;28;20193;-65
2021/05/23 04:10:05;;;;;;;3.43;2.17;;;;;;;10.40;68.44;99781.47;5070988;28;20275;-66
2021/05/23 04:12:35;;;;;;;16.77;9.73;;;;;;;10.50;67.67;99781.59;5056611;28;20246;-70
2021/05/23 04:15:05;;;;;;;4.10;2.90;;;;;;;10.43;68.42;99750.88;5070013;28;20629;-70
2021/05/23 04:17:33;;;;;;;15.87;1.87;;;;;;;10.69;68.30;99775.50;5075917;28;20235;-70
2021/05/23 04:20:02;;;;;;;6.67;1.87;;;;;;;10.75;69.22;99785.75;5075391;28;20216;-71
2021/05/23 04:22:30;;;;;;;2.10;1.70;;;;;;;10.70;70.31;99780.75;5069655;28;20206;-70
2021/05/23 04:25:00;;;;;;;2.47;1.80;;;;;;;10.76;71.01;99787.47;5068983;28;20259;-70
2021/05/23 04:27:28;;;;;;;2.03;1.60;;;;;;;10.85;69.12;99781.31;5068968;28;20198;-71
2021/05/23 04:29:56;;;;;;;1.97;1.80;;;;;;;10.91;70.91;99785.31;5070266;28;20224;-71
2021/05/23 04:32:27;;;;;;;2.00;1.70;;;;;;;10.97;72.27;99790.16;5087111;28;20205;-71
2021/05/23 04:34:55;;;;;;;3.23;2.10;;;;;;;11.01;72.79;99788.91;5071973;28;20201;-71
2021/05/23 04:37:22;;;;;;;4.20;2.10;;;;;;;10.82;74.96;99766.31;5069997;28;20632;-66
2021/05/23 04:39:50;;;;;;;2.53;1.80;;;;;;;11.11;73.84;99784.47;5068328;28;20192;-65
2021/05/23 04:42:18;;;;;;;3.90;1.90;;;;;;;11.11;76.76;99782.63;5069299;28;20577;-71
2021/05/23 04:45:07;;;;;;;1.80;1.70;;;;;;;11.15;77.10;99788.59;5068186;28;20712;-65
2021/05/23 04:47:35;;;;;;;2.90;1.50;;;;;;;11.27;75.86;99787.53;5076852;28;20292;-65
2021/05/23 04:50:05;;;;;;;1.93;1.50;;;;;;;11.24;76.29;99787.81;5073354;28;20312;-66
2021/05/23 04:52:33;;;;;;;2.40;1.50;;;;;;;11.44;73.94;99792.31;5081284;28;20200;-71
2021/05/23 04:55:01;;;;;;;2.50;1.40;;;;;;;11.42;73.85;99772.78;5068913;28;20228;-70
2021/05/23 04:57:29;;;;;;;1.70;1.47;;;;;;;11.64;71.98;99803.19;5068333;28;20241;-66
2021/05/23 04:59:57;;;;;;;1.87;1.50;;;;;;;11.68;72.53;99796.56;5068502;28;20202;-65
2021/05/23 05:02:25;;;;;;;1.73;1.50;;;;;;;11.81;71.85;99794.50;5068276;28;20203;-66
2021/05/23 05:04:54;;;;;;;2.87;1.70;;;;;;;11.74;73.73;99790.63;5068728;28;20190;-66
2021/05/23 05:07:21;;;;;;;3.83;1.60;;;;;;;11.75;74.51;99803.09;5068257;28;20201;-65
2021/05/23 05:09:49;;;;;;;3.80;1.70;;;;;;;11.62;75.58;99797.91;5073965;28;20223;-71
2021/05/23 05:12:17;;;;;;;3.67;1.30;;;;;;;11.79;74.17;99805.41;5074889;28;20729;-70
2021/05/23 05:14:44;;;;;;;1.60;1.40;;;;;;;11.95;74.12;99804.06;5082865;28;20314;-66
2021/05/23 05:17:12;;;;;;;1.93;1.67;;;;;;;12.01;74.25;99798.97;5067933;28;20626;-65
2021/05/23 05:19:40;;;;;;;4.53;1.50;;;;;;;12.20;73.90;99802.69;5070955;28;20200;-65
2021/05/23 05:22:09;;;;;;;1.80;1.70;;;;;;;12.30;74.33;99803.59;5079283;28;20628;-66
2021/05/23 05:24:36;;;;;;;1.97;1.43;;;;;;;12.43;73.62;99805.03;5067777;28;20195;-66
2021/05/23 05:27:04;;;;;;;6.57;1.73;;;;;;;12.49;73.39;99802.78;5058208;28;20227;-65
2021/05/23 05:29:32;;;;;;;2.53;1.70;;;;;;;12.46;73.69;99797.66;5076583;28;20226;-66
2021/05/23 05:32:02;;;;;;;1.70;1.60;;;;;;;12.42;73.38;99802.47;5072535;28;20203;-66
2021/05/23 05:34:29;;;;;;;242.80;118.47;;;;;;;12.52;73.60;99803.34;5067819;28;20200;-65
2021/05/23 05:36:57;;;;;;;17.43;9.43;;;;;;;12.59;74.48;99804.50;5067484;28;20720;-66
2021/05/23 05:39:26;;;;;;;8.27;4.27;;;;;;;12.75;73.53;99804.78;5076375;28;20193;-66
2021/05/23 05:41:53;;;;;;;4.83;3.20;;;;;;;12.92;74.33;99797.84;5073352;28;20290;-66
2021/05/23 05:44:21;;;;;;;6.40;3.40;;;;;;;13.03;74.69;99803.09;5068571;28;20214;-67
2021/05/23 05:46:48;;;;;;;9.43;2.70;;;;;;;13.16;74.34;99794.69;5069489;28;20232;-66
2021/05/23 05:49:16;;;;;;;3.67;1.60;;;;;;;13.30;72.52;99805.06;5095000;28;20219;-66
2021/05/23 05:51:44;;;;;;;20.30;17.53;;;;;;;13.42;72.74;99799.50;5076331;28;20257;-66
2021/05/23 05:54:12;;;;;;;4.27;2.10;;;;;;;13.58;72.17;99807.84;5080629;28;20724;-66
2021/05/23 05:56:43;;;;;;;3.33;1.60;;;;;;;13.74;71.15;99807.22;5078475;28;20255;-66
2021/05/23 05:59:10;;;;;;;2.17;1.53;;;;;;;13.79;70.37;99808.50;5077698;28;20196;-67
2021/05/23 06:01:38;;;;;;;5.00;2.20;;;;;;;14.01;68.42;99815.34;5068415;28;20193;-66
2021/05/23 06:04:06;;;;;;;1.87;1.77;;;;;;;13.93;69.07;99818.81;5078990;28;20201;-67
2021/05/23 06:06:33;;;;;;;2.07;1.43;;;;;;;13.92;69.80;99813.56;5057515;28;20319;-66
2021/05/23 06:09:01;;;;;;;4.40;1.67;;;;;;;13.72;69.66;99810.06;5074870;28;20215;-67
2021/05/23 06:11:34;;;;;;;2.13;1.50;;;;;;;13.77;69.34;99807.78;5077583;28;20219;-67
2021/05/23 06:14:03;;;;;;;4.57;1.83;;;;;;;13.85;68.58;99816.00;5074701;28;20710;-66
2021/05/23 06:16:31;;;;;;;1.63;1.20;;;;;;;13.62;69.87;99811.97;5077769;28;20678;-66
2021/05/23 06:18:59;;;;;;;1.77;1.60;;;;;;;13.57;69.64;99819.66;5083638;28;20262;-66
2021/05/23 06:21:26;;;;;;;2.67;1.50;;;;;;;13.46;70.55;99819.78;5078668;28;20204;-66
2021/05/23 06:23:54;;;;;;;1.67;1.57;;;;;;;13.49;70.30;99824.94;5085365;28;20192;-66
2021/05/23 06:26:24;;;;;;;2.17;1.30;;;;;;;13.46;nan;99831.44;5080855;28;20279;-66
2021/05/23 06:28:53;;;;;;;5.80;1.83;;;;;;;13.27;71.34;99799.97;5067489;28;20605;-66
2021/05/23 06:31:22;;;;;;;2.60;1.80;;;;;;;13.33;72.02;99831.75;5076507;28;20199;-66
2021/05/23 06:33:50;;;;;;;2.13;1.57;;;;;;;13.34;72.43;99821.81;5067702;28;20223;-66
2021/05/23 06:36:17;;;;;;;2.83;1.80;;;;;;;13.36;72.45;99831.47;5074138;28;20241;-65
2021/05/23 06:38:45;;;;;;;6.17;1.80;;;;;;;13.32;72.72;99829.19;5074559;28;20238;-65
2021/05/23 06:41:13;;;;;;;5.70;1.77;;;;;;;13.34;73.08;99829.91;5067577;28;20818;-67
2021/05/23 06:43:40;;;;;;;1.77;1.67;;;;;;;13.40;73.07;99840.09;5065091;28;20216;-67
2021/05/23 06:46:08;;;;;;;2.33;1.63;;;;;;;13.46;72.92;99835.97;5071704;28;20197;-67
2021/05/23 06:48:36;;;;;;;6.57;1.83;;;;;;;13.19;73.54;99801.69;5070221;28;20207;-68
2021/05/23 06:51:05;;;;;;;3.77;1.73;;;;;;;13.65;73.56;99833.25;5072969;28;20802;-67
2021/05/23 06:53:32;;;;;;;3.10;1.83;;;;;;;13.71;71.74;99838.06;5076791;28;21253;-67
2021/05/23 06:56:00;;;;;;;1.80;1.70;;;;;;;13.57;73.21;99825.03;5075127;28;20206;-67
2021/05/23 06:58:28;;;;;;;2.67;1.57;;;;;;;13.89;72.17;99839.00;5075758;28;20204;-67
2021/05/23 07:00:55;;;;;;;5.13;1.70;;;;;;;13.86;72.13;99850.09;5074792;28;20643;-66
2021/05/23 07:03:23;;;;;;;2.33;1.60;;;;;;;14.01;70.71;99844.19;5070246;28;20211;-66
2021/05/23 07:05:52;;;;;;;1.60;1.50;;;;;;;13.81;70.92;99808.34;5083029;28;20268;-66
2021/05/23 07:08:20;;;;;;;2.00;1.87;;;;;;;14.09;70.00;99844.34;5079801;28;20671;-66
2021/05/23 07:10:47;;;;;;;3.87;1.53;;;;;;;13.76;71.20;99814.16;5071443;28;20226;-67
2021/05/23 07:13:15;;;;;;;2.93;1.53;;;;;;;14.04;70.95;99852.00;5069771;28;20237;-67
2021/05/23 07:15:43;;;;;;;2.33;1.50;;;;;;;14.23;70.36;99857.34;5070747;28;20206;-67
2021/05/23 07:18:10;;;;;;;3.03;1.90;;;;;;;14.24;70.42;99850.94;5069459;28;20196;-67
2021/05/23 07:20:38;;;;;;;2.70;1.60;;;;;;;14.31;71.12;99854.72;5081745;28;20401;-68
2021/05/23 07:23:07;;;;;;;1.53;1.43;;;;;;;14.38;70.05;99858.53;5073287;28;20319;-67
2021/05/23 07:25:35;;;;;;;3.20;1.50;;;;;;;14.43;69.53;99848.19;5072770;28;20548;-67
2021/05/23 07:28:03;;;;;;;5.47;1.73;;;;;;;14.63;70.87;99858.84;5084346;28;20577;-68
2021/05/23 07:30:31;;;;;;;2.27;1.30;;;;;;;14.78;67.26;99860.03;5069655;28;20231;-67
2021/05/23 07:32:59;;;;;;;3.13;1.70;;;;;;;14.95;67.93;99861.03;5070156;28;20730;-67
2021/05/23 07:35:26;;;;;;;6.87;1.57;;;;;;;15.05;67.73;99864.56;5070416;28;20197;-71
2021/05/23 07:37:54;;;;;;;3.17;1.50;;;;;;;15.22;67.25;99869.09;5072906;28;20222;-71
2021/05/23 07:40:23;;;;;;;2.00;1.37;;;;;;;15.29;65.88;99866.59;5067817;28;20193;-72
2021/05/23 07:42:50;;;;;;;1.17;1.17;;;;;;;15.39;66.60;99864.69;5070895;28;20531;-72
2021/05/23 07:45:18;;;;;;;1.60;1.20;;;;;;;15.66;66.21;99875.41;5069791;28;20228;-72
2021/05/23 07:47:46;;;;;;;2.57;1.57;;;;;;;15.52;65.56;99871.38;5069916;28;20576;-72
2021/05/23 07:50:14;;;;;;;1.77;1.30;;;;;;;15.47;65.86;99883.69;5071882;28;20722;-72
2021/05/23 07:52:42;;;;;;;2.20;1.33;;;;;;;15.52;65.82;99873.22;5069580;28;20204;-72
2021/05/23 07:55:12;;;;;;;3.00;1.40;;;;;;;15.52;65.82;99875.94;5071532;28;20212;-72
2021/05/23 07:57:40;;;;;;;1.33;1.10;;;;;;;15.32;64.09;99874.44;5067937;28;20190;-72
2021/05/23 08:00:10;;;;;;;2.63;1.10;;;;;;;15.43;64.61;99864.22;5069596;28;20199;-72
2021/05/23 08:02:38;;;;;;;1.77;1.20;;;;;;;15.60;64.55;99878.72;5070947;28;20196;-71
2021/05/23 08:05:07;;;;;;;3.73;1.47;;;;;;;15.52;64.58;99862.41;5069637;28;20763;-72
2021/05/23 08:07:34;;;;;;;1.40;1.30;;;;;;;15.59;64.86;99868.91;5070852;28;20201;-72
2021/05/23 08:10:02;;;;;;;1.27;1.20;;;;;;;15.49;65.33;99868.13;5064898;28;20208;-72
2021/05/23 08:12:32;;;;;;;2.57;1.23;;;;;;;15.64;65.29;99876.59;5084387;28;20200;-67
2021/05/23 08:15:01;;;;;;;1.90;1.03;;;;;;;15.61;63.22;99874.16;5080752;28;20739;-67
2021/05/23 08:17:29;;;;;;;1.43;1.33;;;;;;;15.84;63.65;99873.50;5082972;28;20213;-67
2021/05/23 08:19:56;;;;;;;2.00;1.10;;;;;;;16.39;62.85;99875.84;5085649;28;20568;-67
2021/05/23 08:22:24;;;;;;;2.37;1.00;;;;;;;16.54;61.05;99877.94;5079472;28;20196;-66
2021/05/23 08:24:52;;;;;;;4.33;1.40;;;;;;;16.31;60.48;99839.75;5070439;28;20745;-66
2021/05/23 08:27:20;;;;;;;1.00;0.90;;;;;;;16.44;60.36;99878.06;5071270;28;20243;-65
2021/05/23 08:29:48;;;;;;;3.93;1.10;;;;;;;16.37;61.45;99872.44;5068738;28;20221;-66
2021/05/23 08:32:16;;;;;;;1.30;1.17;;;;;;;16.18;60.68;99879.97;5071360;28;20201;-66
2021/05/23 08:34:44;;;;;;;5.63;1.50;;;;;;;16.13;60.71;99878.59;5069405;28;20315;-66
2021/05/23 08:37:12;;;;;;;2.73;1.20;;;;;;;16.31;61.73;99875.81;5073033;28;20682;-67
2021/05/23 08:39:39;;;;;;;2.83;1.40;;;;;;;16.40;61.56;99885.66;5085645;28;20216;-67
2021/05/23 08:42:07;;;;;;;1.23;1.00;;;;;;;16.31;60.13;99877.69;5082305;28;20201;-67
2021/05/23 08:44:38;;;;;;;1.63;1.00;;;;;;;16.30;60.43;99879.53;5080816;28;20190;-66
2021/05/23 08:47:06;;;;;;;4.00;1.00;;;;;;;16.22;60.04;99887.59;5084427;28;20216;-67
2021/05/23 08:49:34;;;;;;;1.27;0.90;;;;;;;16.30;59.89;99886.81;5085587;28;20592;-66
2021/05/23 08:52:03;;;;;;;1.90;0.90;;;;;;;16.31;60.68;99886.66;5083872;28;20208;-67
2021/05/23 08:54:31;;;;;;;2.70;0.97;;;;;;;16.46;59.95;99890.44;5082391;28;20193;-67
2021/05/23 08:56:59;;;;;;;1.33;0.90;;;;;;;16.32;60.88;99863.13;5074021;28;20204;-67
2021/05/23 08:59:27;;;;;;;3.03;1.00;;;;;;;16.56;61.60;99895.75;5080715;28;20821;-67
2021/05/23 09:02:04;;;;;;;1.50;0.93;;;;;;;16.50;60.58;99879.25;5086506;28;20622;-67
2021/05/23 09:04:31;;;;;;;1.40;1.03;;;;;;;16.66;61.21;99887.50;5085180;28;20283;-72
2021/05/23 09:07:04;;;;;;;2.70;1.00;;;;;;;16.59;59.91;99891.84;5083903;28;20201;-72
2021/05/23 09:09:42;;;;;;;1.30;1.20;;;;;;;16.60;58.91;99885.41;5079714;28;20193;-73
2021/05/23 09:12:11;;;;;;;3.23;1.10;;;;;;;16.52;60.28;99886.22;5085037;28;20223;-73
2021/05/23 09:14:43;;;;;;;1.00;1.00;;;;;;;16.35;60.14;99887.16;5082850;28;20242;-73
2021/05/23 09:17:21;;;;;;;0.80;0.80;;;;;;;16.46;58.63;99887.72;5082329;28;20658;-73
2021/05/23 09:19:51;;;;;;;0.80;0.80;;;;;;;16.25;59.38;99881.88;5081264;28;20258;-73
2021/05/23 09:22:21;;;;;;;2.30;1.10;;;;;;;16.48;59.57;99886.72;5085165;28;20274;-73
2021/05/23 09:24:51;;;;;;;2.33;0.90;;;;;;;16.33;60.04;99889.19;5081326;28;20610;-73
2021/05/23 09:27:20;;;;;;;1.83;1.20;;;;;;;16.17;60.28;99887.25;5084612;28;20643;-73
2021/05/23 09:29:48;;;;;;;0.90;0.90;;;;;;;16.17;60.26;99889.94;5079339;28;20283;-73
2021/05/23 09:32:20;;;;;;;0.90;0.90;;;;;;;16.15;60.29;99886.56;5113646;27;20224;-73
2021/05/23 09:34:49;;;;;;;1.00;1.00;;;;;;;15.99;60.83;99897.31;5086959;28;20571;-73
2021/05/23 09:37:17;;;;;;;1.03;1.00;;;;;;;15.99;60.63;99891.88;5082236;28;20200;-74
2021/05/23 09:39:46;;;;;;;1.03;0.83;;;;;;;15.68;61.93;99878.81;5079182;28;20218;-73
2021/05/23 09:42:15;;;;;;;1.07;0.80;;;;;;;15.83;62.59;99896.16;5084130;28;20228;-73
2021/05/23 09:44:43;;;;;;;2.97;0.80;;;;;;;15.64;62.35;99900.94;5084569;28;20207;-72
2021/05/23 09:47:12;;;;;;;2.80;0.87;;;;;;;15.47;63.31;99899.91;5084456;28;20208;-73
2021/05/23 09:49:50;;;;;;;0.80;0.80;;;;;;;15.13;61.87;99873.59;5083487;28;20687;-72
2021/05/23 09:52:30;;;;;;;0.70;0.70;;;;;;;15.17;62.25;99912.84;5083097;28;20200;-73
2021/05/23 09:55:05;;;;;;;0.90;0.90;;;;;;;15.11;63.40;99913.47;5071235;28;20204;-73
2021/05/23 09:57:33;;;;;;;0.90;0.90;;;;;;;14.98;63.87;99914.81;5084301;28;20659;-65
2021/05/23 10:00:04;;;;;;;4.97;1.20;;;;;;;14.82;64.92;99915.50;5079489;28;20295;-66
2021/05/23 10:02:32;;;;;;;3.50;1.10;;;;;;;14.62;66.50;99881.47;5079901;28;20292;-67
2021/05/23 10:05:13;;;;;;;4.43;1.23;;;;;;;14.73;67.10;99927.22;5077819;28;20196;-67
2021/05/23 10:07:41;;;;;;;1.90;1.13;;;;;;;14.57;66.02;99877.38;5077060;28;20204;-66
2021/05/23 10:10:11;;;;;;;5.43;1.20;;;;;;;15.17;65.09;99931.78;5076811;28;20601;-71
2021/05/23 10:12:39;;;;;;;1.10;1.10;;;;;;;15.25;64.24;99922.03;5076626;28;20734;-67
2021/05/23 10:15:10;;;;;;;3.17;1.20;;;;;;;15.40;64.13;99929.47;5071711;28;20197;-67
2021/05/23 10:17:57;;;;;;;1.93;1.00;;;;;;;15.42;63.16;99929.31;5081303;28;20311;-67
2021/05/23 10:20:27;;;;;;;1.47;1.10;;;;;;;15.36;63.93;99932.63;5083182;28;20233;-68
2021/05/23 10:22:59;;;;;;;1.43;1.00;;;;;;;15.25;65.44;99913.91;5102713;28;20254;-67
2021/05/23 10:25:29;;;;;;;1.00;1.00;;;;;;;15.05;66.18;99908.66;5076188;28;20197;-68
2021/05/23 10:28:02;;;;;;;1.33;1.20;;;;;;;14.97;68.57;99922.06;5077195;28;20201;-68
2021/05/23 10:30:31;;;;;;;2.57;1.60;;;;;;;14.86;71.03;99908.78;5072666;28;20248;-68
2021/05/23 10:33:10;;;;;;;2.30;1.47;;;;;;;14.87;73.83;99924.84;5084161;28;20705;-68
2021/05/23 10:35:42;;;;;;;4.47;1.60;;;;;;;15.00;75.37;99927.22;5084589;28;20710;-66
2021/05/23 10:38:22;;;;;;;1.43;1.10;;;;;;;15.13;74.28;99924.13;5074926;28;20197;-67
2021/05/23 10:40:56;;;;;;;2.83;1.50;;;;;;;15.15;73.20;99936.50;5069226;28;20193;-68
2021/05/23 10:43:27;;;;;;;5.37;1.30;;;;;;;15.13;72.95;99937.66;5069707;28;20861;-67
2021/05/23 10:46:06;;;;;;;1.60;1.10;;;;;;;15.36;73.01;99943.47;5073084;28;20330;-67
2021/05/23 10:48:35;;;;;;;1.20;1.10;;;;;;;15.56;72.24;99944.13;5077436;28;20255;-67
2021/05/23 10:51:12;;;;;;;4.43;1.40;;;;;;;15.32;71.21;99910.47;5078029;28;20216;-66
2021/05/23 10:53:41;;;;;;;1.53;1.37;;;;;;;15.22;70.65;99942.97;5076142;28;20213;-67
2021/05/23 10:56:24;;;;;;;1.10;1.10;;;;;;;15.25;71.95;99944.53;5084113;28;20571;-67
2021/05/23 10:58:54;;;;;;;1.03;1.00;;;;;;;15.10;70.86;99949.63;5076350;28;20209;-66
2021/05/23 11:01:37;;;;;;;2.00;0.90;;;;;;;15.06;71.20;99947.38;5073835;28;20207;-67
2021/05/23 11:04:11;;;;;;;2.50;1.20;;;;;;;15.29;70.12;99945.91;5084654;28;20208;-74
2021/05/23 11:06:40;;;;;;;1.70;1.00;;;;;;;15.49;70.58;99960.16;5080994;28;20205;-74
2021/05/23 11:09:10;;;;;;;1.67;1.00;;;;;;;15.31;70.19;99934.97;5066930;28;20221;-73
2021/05/23 11:11:39;;;;;;;1.60;1.07;;;;;;;15.60;69.53;99941.00;5076045;28;20220;-76
2021/05/23 11:14:18;;;;;;;1.10;1.10;;;;;;;15.60;69.72;99951.81;5077117;28;20237;-77
2021/05/23 11:16:51;;;;;;;1.73;1.17;;;;;;;15.63;70.02;99950.69;5066006;28;20224;-77
2021/05/23 11:19:20;;;;;;;1.00;0.90;;;;;;;15.33;69.58;99917.56;5072786;28;20287;-78
2021/05/23 11:21:50;;;;;;;1.13;1.13;;;;;;;15.61;69.65;99963.50;5071013;28;20283;-78
2021/05/23 11:24:18;;;;;;;1.00;1.00;;;;;;;15.55;70.00;99948.69;5068395;28;20197;-78
2021/05/23 11:26:47;;;;;;;3.33;1.17;;;;;;;15.58;70.51;99947.53;5070843;28;20197;-77
2021/05/23 11:29:14;;;;;;;1.53;1.17;;;;;;;15.39;71.51;99948.56;5074980;28;20194;-77
2021/05/23 11:31:44;;;;;;;1.27;1.10;;;;;;;15.39;71.16;99944.00;5072599;28;20893;-77
2021/05/23 11:34:15;;;;;;;3.43;1.20;;;;;;;15.29;72.74;99955.88;5081225;28;20200;-77
2021/05/23 11:36:43;;;;;;;2.17;1.17;;;;;;;15.18;72.30;99941.59;5072964;28;20648;-77
2021/05/23 11:39:12;;;;;;;1.00;1.00;;;;;;;15.20;72.87;99944.13;5068156;28;20231;-77
2021/05/23 11:41:41;;;;;;;1.30;1.20;;;;;;;15.08;73.14;99948.94;5076160;28;20192;-77
2021/05/23 11:44:13;;;;;;;1.00;1.00;;;;;;;15.14;72.91;99955.56;5075802;28;20189;-78
2021/05/23 11:46:42;;;;;;;1.63;1.20;;;;;;;15.03;73.86;99932.31;5071587;28;20627;-77
2021/05/23 11:49:18;;;;;;;1.13;1.03;;;;;;;15.20;73.47;99944.97;5073909;28;20285;-77